sensor_id;sensor_type;location;lat;lon;timestamp;pressure;altitude;pressure_sealevel;temperature;humidity
62779;BME280;48821;48.796;2.396;2022-12-13T00:00:44;100570.13;;;1.16;59.60
62779;BME280;48821;48.796;2.396;2022-12-13T00:01:55;100567.53;;;1.16;60.10
62779;BME280;48821;48.796;2.396;2022-12-13T00:03:06;100567.53;;;1.16;59.67
62779;BME280;48821;48.796;2.396;2022-12-13T00:04:18;100560.63;;;1.15;59.80
62779;BME280;48821;48.796;2.396;2022-12-13T00:05:29;100559.75;;;1.14;59.44
62779;BME280;48821;48.796;2.396;2022-12-13T00:06:42;100560.63;;;1.15;59.78
62779;BME280;48821;48.796;2.396;2022-12-13T00:07:52;100555.44;;;1.15;59.57
62779;BME280;48821;48.796;2.396;2022-12-13T00:09:04;100553.72;;;1.15;59.66
62779;BME280;48821;48.796;2.396;2022-12-13T00:10:14;100548.56;;;1.14;59.65
62779;BME280;48821;48.796;2.396;2022-12-13T00:11:25;100551.13;;;1.12;59.35
62779;BME280;48821;48.796;2.396;2022-12-13T00:12:35;100552.00;;;1.11;59.39
62779;BME280;48821;48.796;2.396;2022-12-13T00:13:46;100557.16;;;1.14;59.00
62779;BME280;48821;48.796;2.396;2022-12-13T00:14:57;100551.16;;;1.14;59.50
62779;BME280;48821;48.796;2.396;2022-12-13T00:16:11;100545.97;;;1.14;59.63
62779;BME280;48821;48.796;2.396;2022-12-13T00:17:21;100546.81;;;1.12;58.94
62779;BME280;48821;48.796;2.396;2022-12-13T00:18:32;100550.28;;;1.13;59.86
62779;BME280;48821;48.796;2.396;2022-12-13T00:19:43;100543.34;;;1.12;59.17
62779;BME280;48821;48.796;2.396;2022-12-13T00:20:53;100547.69;;;1.13;59.69
62779;BME280;48821;48.796;2.396;2022-12-13T00:22:04;100544.22;;;1.11;60.09
62779;BME280;48821;48.796;2.396;2022-12-13T00:23:14;100545.06;;;1.11;59.43
62779;BME280;48821;48.796;2.396;2022-12-13T00:24:24;100542.50;;;1.10;59.77
62779;BME280;48821;48.796;2.396;2022-12-13T00:25:34;100535.59;;;1.10;59.37
62779;BME280;48821;48.796;2.396;2022-12-13T00:26:45;100530.41;;;1.10;59.62
62779;BME280;48821;48.796;2.396;2022-12-13T00:27:55;100530.41;;;1.10;59.41
62779;BME280;48821;48.796;2.396;2022-12-13T00:29:06;100533.00;;;1.10;59.38
62779;BME280;48821;48.796;2.396;2022-12-13T00:30:17;100533.84;;;1.08;58.80
62779;BME280;48821;48.796;2.396;2022-12-13T00:31:27;100532.97;;;1.07;59.71
62779;BME280;48821;48.796;2.396;2022-12-13T00:32:40;100534.72;;;1.05;59.42
62779;BME280;48821;48.796;2.396;2022-12-13T00:33:51;100534.72;;;1.05;59.98
62779;BME280;48821;48.796;2.396;2022-12-13T00:35:01;100531.25;;;1.03;59.54
62779;BME280;48821;48.796;2.396;2022-12-13T00:36:12;100532.97;;;1.03;59.38
62779;BME280;48821;48.796;2.396;2022-12-13T00:37:23;100527.81;;;1.01;59.28
62779;BME280;48821;48.796;2.396;2022-12-13T00:38:34;100528.66;;;1.03;59.97
62779;BME280;48821;48.796;2.396;2022-12-13T00:39:45;100538.16;;;1.03;60.00
62779;BME280;48821;48.796;2.396;2022-12-13T00:40:55;100531.22;;;1.01;59.53
62779;BME280;48821;48.796;2.396;2022-12-13T00:42:05;100529.50;;;1.02;59.79
62779;BME280;48821;48.796;2.396;2022-12-13T00:43:16;100533.81;;;1.00;59.50
62779;BME280;48821;48.796;2.396;2022-12-13T00:44:27;100530.41;;;1.01;59.73
62779;BME280;48821;48.796;2.396;2022-12-13T00:45:37;100528.66;;;1.00;58.84
62779;BME280;48821;48.796;2.396;2022-12-13T00:46:48;100526.06;;;0.98;58.97
62779;BME280;48821;48.796;2.396;2022-12-13T00:48:00;100527.78;;;0.98;59.15
62779;BME280;48821;48.796;2.396;2022-12-13T00:49:12;100528.66;;;0.98;59.73
62779;BME280;48821;48.796;2.396;2022-12-13T00:50:22;100525.19;;;0.96;59.58
62779;BME280;48821;48.796;2.396;2022-12-13T00:51:34;100528.63;;;0.97;59.70
62779;BME280;48821;48.796;2.396;2022-12-13T00:52:44;100526.91;;;0.96;59.29
62779;BME280;48821;48.796;2.396;2022-12-13T00:53:55;100526.91;;;0.97;59.17
62779;BME280;48821;48.796;2.396;2022-12-13T00:55:05;100520.88;;;0.97;59.09
62779;BME280;48821;48.796;2.396;2022-12-13T00:56:18;100525.19;;;0.95;59.48
62779;BME280;48821;48.796;2.396;2022-12-13T00:57:30;100519.13;;;0.93;59.52
62779;BME280;48821;48.796;2.396;2022-12-13T00:58:42;100523.44;;;0.92;60.12
62779;BME280;48821;48.796;2.396;2022-12-13T00:59:53;100520.84;;;0.92;59.37
62779;BME280;48821;48.796;2.396;2022-12-13T01:01:05;100525.16;;;0.92;59.77
62779;BME280;48821;48.796;2.396;2022-12-13T01:02:16;100522.56;;;0.90;59.43
62779;BME280;48821;48.796;2.396;2022-12-13T01:03:27;100528.63;;;0.92;59.41
62779;BME280;48821;48.796;2.396;2022-12-13T01:04:37;100527.75;;;0.92;59.31
62779;BME280;48821;48.796;2.396;2022-12-13T01:05:47;100524.31;;;0.93;59.59
62779;BME280;48821;48.796;2.396;2022-12-13T01:06:58;100526.03;;;0.91;59.31
62779;BME280;48821;48.796;2.396;2022-12-13T01:08:08;100520.84;;;0.91;59.82
62779;BME280;48821;48.796;2.396;2022-12-13T01:09:21;100521.72;;;0.91;59.07
62779;BME280;48821;48.796;2.396;2022-12-13T01:10:32;100523.44;;;0.91;59.87
62779;BME280;48821;48.796;2.396;2022-12-13T01:11:43;100523.44;;;0.91;59.08
62779;BME280;48821;48.796;2.396;2022-12-13T01:12:54;100519.13;;;0.89;59.00
62779;BME280;48821;48.796;2.396;2022-12-13T01:14:04;100524.28;;;0.89;59.59
62779;BME280;48821;48.796;2.396;2022-12-13T01:15:14;100522.59;;;0.88;59.45
62779;BME280;48821;48.796;2.396;2022-12-13T01:16:25;100519.97;;;0.87;59.44
62779;BME280;48821;48.796;2.396;2022-12-13T01:17:35;100526.88;;;0.88;59.41
62779;BME280;48821;48.796;2.396;2022-12-13T01:18:45;100527.75;;;0.85;58.78
62779;BME280;48821;48.796;2.396;2022-12-13T01:19:56;100523.41;;;0.84;59.22
62779;BME280;48821;48.796;2.396;2022-12-13T01:21:08;100530.31;;;0.85;59.07
62779;BME280;48821;48.796;2.396;2022-12-13T01:22:19;100528.56;;;0.84;59.18
62779;BME280;48821;48.796;2.396;2022-12-13T01:23:30;100527.75;;;0.85;58.59
62779;BME280;48821;48.796;2.396;2022-12-13T01:24:40;100530.31;;;0.85;58.65
62779;BME280;48821;48.796;2.396;2022-12-13T01:25:50;100528.56;;;0.84;58.72
62779;BME280;48821;48.796;2.396;2022-12-13T01:27:01;100523.41;;;0.83;59.59
62779;BME280;48821;48.796;2.396;2022-12-13T01:28:11;100526.00;;;0.84;59.45
62779;BME280;48821;48.796;2.396;2022-12-13T01:29:22;100522.56;;;0.85;59.64
62779;BME280;48821;48.796;2.396;2022-12-13T01:30:33;100522.56;;;0.85;59.19
62779;BME280;48821;48.796;2.396;2022-12-13T01:31:43;100523.44;;;0.86;59.26
62779;BME280;48821;48.796;2.396;2022-12-13T01:32:54;100519.97;;;0.85;59.26
62779;BME280;48821;48.796;2.396;2022-12-13T01:34:04;100515.63;;;0.84;58.69
62779;BME280;48821;48.796;2.396;2022-12-13T01:35:19;100512.22;;;0.84;58.22
62779;BME280;48821;48.796;2.396;2022-12-13T01:36:29;100507.88;;;0.83;59.09
62779;BME280;48821;48.796;2.396;2022-12-13T01:37:40;100510.47;;;0.81;59.09
62779;BME280;48821;48.796;2.396;2022-12-13T01:38:50;100507.00;;;0.82;58.83
62779;BME280;48821;48.796;2.396;2022-12-13T01:40:01;100508.72;;;0.82;58.49
62779;BME280;48821;48.796;2.396;2022-12-13T01:41:17;100507.88;;;0.81;58.52
62779;BME280;48821;48.796;2.396;2022-12-13T01:42:28;100511.31;;;0.82;58.67
62779;BME280;48821;48.796;2.396;2022-12-13T01:46:05;100505.28;;;0.83;58.89
62779;BME280;48821;48.796;2.396;2022-12-13T01:47:24;100504.44;;;0.82;58.81
62779;BME280;48821;48.796;2.396;2022-12-13T01:48:41;100509.59;;;0.82;58.78
62779;BME280;48821;48.796;2.396;2022-12-13T01:49:56;100501.84;;;0.82;59.27
62779;BME280;48821;48.796;2.396;2022-12-13T01:51:12;100509.63;;;0.84;58.44
62779;BME280;48821;48.796;2.396;2022-12-13T01:52:24;100505.28;;;0.84;58.91
62779;BME280;48821;48.796;2.396;2022-12-13T01:53:38;100500.13;;;0.84;58.58
62779;BME280;48821;48.796;2.396;2022-12-13T01:54:51;100506.16;;;0.85;59.02
62779;BME280;48821;48.796;2.396;2022-12-13T01:56:09;100507.88;;;0.84;58.35
62779;BME280;48821;48.796;2.396;2022-12-13T01:57:22;100511.34;;;0.83;58.21
62779;BME280;48821;48.796;2.396;2022-12-13T01:58:33;100512.19;;;0.82;58.42
62779;BME280;48821;48.796;2.396;2022-12-13T01:59:46;100513.94;;;0.83;58.60
62779;BME280;48821;48.796;2.396;2022-12-13T02:00:58;100508.72;;;0.82;57.97
62779;BME280;48821;48.796;2.396;2022-12-13T02:02:11;100517.38;;;0.82;57.68
62779;BME280;48821;48.796;2.396;2022-12-13T02:03:23;100509.63;;;0.84;58.26
62779;BME280;48821;48.796;2.396;2022-12-13T02:06:16;100511.34;;;0.85;58.65
62779;BME280;48821;48.796;2.396;2022-12-13T02:07:29;100518.25;;;0.86;57.95
62779;BME280;48821;48.796;2.396;2022-12-13T02:08:43;100510.50;;;0.86;58.55
62779;BME280;48821;48.796;2.396;2022-12-13T02:09:55;100513.94;;;0.86;58.50
62779;BME280;48821;48.796;2.396;2022-12-13T02:11:08;100516.53;;;0.86;58.13
62779;BME280;48821;48.796;2.396;2022-12-13T02:12:18;100517.38;;;0.87;58.27
62779;BME280;48821;48.796;2.396;2022-12-13T02:13:29;100515.66;;;0.86;58.20
62779;BME280;48821;48.796;2.396;2022-12-13T02:14:39;100522.56;;;0.87;58.12
62779;BME280;48821;48.796;2.396;2022-12-13T02:31:57;100513.91;;;0.78;58.44
62779;BME280;48821;48.796;2.396;2022-12-13T02:34:33;100519.06;;;0.77;58.09
62779;BME280;48821;48.796;2.396;2022-12-13T02:39:43;100515.63;;;0.78;58.12
62779;BME280;48821;48.796;2.396;2022-12-13T02:41:09;100508.72;;;0.80;58.21
62779;BME280;48821;48.796;2.396;2022-12-13T02:42:28;100512.19;;;0.79;57.24
62779;BME280;48821;48.796;2.396;2022-12-13T02:43:53;100519.97;;;0.79;57.88
62779;BME280;48821;48.796;2.396;2022-12-13T02:45:13;100509.59;;;0.79;58.01
62779;BME280;48821;48.796;2.396;2022-12-13T02:46:28;100505.28;;;0.78;57.14
62779;BME280;48821;48.796;2.396;2022-12-13T02:47:41;100511.31;;;0.78;57.90
62779;BME280;48821;48.796;2.396;2022-12-13T02:48:56;100510.44;;;0.80;57.80
62779;BME280;48821;48.796;2.396;2022-12-13T02:50:11;100509.59;;;0.79;57.66
62779;BME280;48821;48.796;2.396;2022-12-13T02:51:24;100515.63;;;0.80;57.74
62779;BME280;48821;48.796;2.396;2022-12-13T02:52:36;100507.03;;;0.81;57.90
62779;BME280;48821;48.796;2.396;2022-12-13T02:53:48;100507.03;;;0.81;57.50
62779;BME280;48821;48.796;2.396;2022-12-13T02:54:59;100501.84;;;0.79;56.96
62779;BME280;48821;48.796;2.396;2022-12-13T02:56:10;100501.84;;;0.79;57.44
62779;BME280;48821;48.796;2.396;2022-12-13T02:57:38;100502.69;;;0.76;57.16
62779;BME280;48821;48.796;2.396;2022-12-13T02:58:52;100494.06;;;0.76;57.00
62779;BME280;48821;48.796;2.396;2022-12-13T03:00:10;100494.03;;;0.73;57.09
62779;BME280;48821;48.796;2.396;2022-12-13T03:03:06;100494.03;;;0.73;56.83
62779;BME280;48821;48.796;2.396;2022-12-13T03:07:27;100499.22;;;0.71;57.09
62779;BME280;48821;48.796;2.396;2022-12-13T03:10:21;100496.63;;;0.73;56.81
62779;BME280;48821;48.796;2.396;2022-12-13T03:13:48;100496.63;;;0.73;56.78
62779;BME280;48821;48.796;2.396;2022-12-13T03:15:13;100496.63;;;0.73;56.87
62779;BME280;48821;48.796;2.396;2022-12-13T03:16:44;100494.03;;;0.74;57.66
62779;BME280;48821;48.796;2.396;2022-12-13T03:18:07;100487.16;;;0.75;57.07
62779;BME280;48821;48.796;2.396;2022-12-13T03:19:25;100482.84;;;0.74;56.90
62779;BME280;48821;48.796;2.396;2022-12-13T03:20:35;100481.09;;;0.74;56.90
62779;BME280;48821;48.796;2.396;2022-12-13T03:21:47;100477.69;;;0.74;56.61
62779;BME280;48821;48.796;2.396;2022-12-13T03:22:58;100476.81;;;0.73;56.81
62779;BME280;48821;48.796;2.396;2022-12-13T03:24:08;100475.94;;;0.73;57.00
62779;BME280;48821;48.796;2.396;2022-12-13T03:25:20;100475.94;;;0.76;56.78
62779;BME280;48821;48.796;2.396;2022-12-13T03:26:31;100475.09;;;0.75;56.63
62779;BME280;48821;48.796;2.396;2022-12-13T03:27:41;100472.50;;;0.77;56.80
62779;BME280;48821;48.796;2.396;2022-12-13T03:28:52;100475.06;;;0.77;56.54
62779;BME280;48821;48.796;2.396;2022-12-13T03:30:03;100476.81;;;0.80;56.18
62779;BME280;48821;48.796;2.396;2022-12-13T03:31:13;100462.16;;;0.78;56.88
62779;BME280;48821;48.796;2.396;2022-12-13T03:32:23;100463.03;;;0.79;56.75
62779;BME280;48821;48.796;2.396;2022-12-13T03:33:34;100466.47;;;0.81;57.11
62779;BME280;48821;48.796;2.396;2022-12-13T03:34:45;100469.91;;;0.80;56.25
62779;BME280;48821;48.796;2.396;2022-12-13T03:35:56;100456.97;;;0.80;56.96
62779;BME280;48821;48.796;2.396;2022-12-13T03:37:07;100463.03;;;0.79;56.17
62779;BME280;48821;48.796;2.396;2022-12-13T03:38:17;100456.97;;;0.77;56.03
62779;BME280;48821;48.796;2.396;2022-12-13T03:39:28;100463.03;;;0.79;56.81
62779;BME280;48821;48.796;2.396;2022-12-13T03:40:38;100468.19;;;0.77;55.56
62779;BME280;48821;48.796;2.396;2022-12-13T03:41:49;100465.59;;;0.76;55.81
62779;BME280;48821;48.796;2.396;2022-12-13T03:43:00;100467.31;;;0.74;55.75
62779;BME280;48821;48.796;2.396;2022-12-13T03:44:11;100469.88;;;0.72;56.58
62779;BME280;48821;48.796;2.396;2022-12-13T03:45:21;100469.03;;;0.75;56.57
62779;BME280;48821;48.796;2.396;2022-12-13T03:46:31;100463.00;;;0.76;57.04
62779;BME280;48821;48.796;2.396;2022-12-13T03:47:42;100469.91;;;0.77;56.61
62779;BME280;48821;48.796;2.396;2022-12-13T03:48:53;100475.94;;;0.77;56.87
62779;BME280;48821;48.796;2.396;2022-12-13T03:50:03;100470.81;;;0.79;56.90
62779;BME280;48821;48.796;2.396;2022-12-13T03:51:14;100478.56;;;0.81;56.26
62779;BME280;48821;48.796;2.396;2022-12-13T03:52:24;100482.88;;;0.78;56.66
62779;BME280;48821;48.796;2.396;2022-12-13T03:53:35;100477.69;;;0.80;56.74
62779;BME280;48821;48.796;2.396;2022-12-13T03:54:45;100480.28;;;0.80;56.53
62779;BME280;48821;48.796;2.396;2022-12-13T03:55:56;100482.84;;;0.80;56.32
62779;BME280;48821;48.796;2.396;2022-12-13T03:57:06;100487.19;;;0.81;56.57
62779;BME280;48821;48.796;2.396;2022-12-13T03:58:17;100487.19;;;0.83;56.25
62779;BME280;48821;48.796;2.396;2022-12-13T03:59:27;100480.28;;;0.83;56.44
62779;BME280;48821;48.796;2.396;2022-12-13T04:00:38;100473.38;;;0.82;56.81
62779;BME280;48821;48.796;2.396;2022-12-13T04:01:48;100482.88;;;0.83;56.91
62779;BME280;48821;48.796;2.396;2022-12-13T04:02:58;100480.28;;;0.85;57.41
62779;BME280;48821;48.796;2.396;2022-12-13T04:04:08;100479.41;;;0.84;56.71
62779;BME280;48821;48.796;2.396;2022-12-13T04:05:19;100477.69;;;0.85;56.37
62779;BME280;48821;48.796;2.396;2022-12-13T04:06:29;100479.41;;;0.84;56.30
62779;BME280;48821;48.796;2.396;2022-12-13T04:07:40;100482.88;;;0.83;56.11
62779;BME280;48821;48.796;2.396;2022-12-13T04:08:51;100481.16;;;0.84;56.28
62779;BME280;48821;48.796;2.396;2022-12-13T04:10:03;100486.34;;;0.84;56.48
62779;BME280;48821;48.796;2.396;2022-12-13T04:11:13;100482.88;;;0.83;56.15
62779;BME280;48821;48.796;2.396;2022-12-13T04:12:50;100477.69;;;0.82;55.68
62779;BME280;48821;48.796;2.396;2022-12-13T04:14:19;100477.69;;;0.80;55.62
62779;BME280;48821;48.796;2.396;2022-12-13T04:15:30;100477.69;;;0.80;56.04
62779;BME280;48821;48.796;2.396;2022-12-13T04:16:40;100473.38;;;0.79;56.35
62779;BME280;48821;48.796;2.396;2022-12-13T04:17:50;100472.50;;;0.77;55.87
62779;BME280;48821;48.796;2.396;2022-12-13T04:19:01;100477.66;;;0.75;56.02
62779;BME280;48821;48.796;2.396;2022-12-13T04:20:11;100475.09;;;0.74;55.75
62779;BME280;48821;48.796;2.396;2022-12-13T04:21:21;100469.91;;;0.71;55.51
62779;BME280;48821;48.796;2.396;2022-12-13T04:22:32;100469.03;;;0.69;55.46
62779;BME280;48821;48.796;2.396;2022-12-13T04:23:42;100466.44;;;0.69;56.55
62779;BME280;48821;48.796;2.396;2022-12-13T04:24:52;100467.28;;;0.67;55.89
62779;BME280;48821;48.796;2.396;2022-12-13T04:26:03;100470.75;;;0.66;56.22
62779;BME280;48821;48.796;2.396;2022-12-13T04:27:13;100461.25;;;0.64;55.88
62779;BME280;48821;48.796;2.396;2022-12-13T04:28:23;100463.81;;;0.62;56.15
62779;BME280;48821;48.796;2.396;2022-12-13T04:29:34;100458.63;;;0.62;55.53
62779;BME280;48821;48.796;2.396;2022-12-13T04:30:44;100463.81;;;0.62;55.93
62779;BME280;48821;48.796;2.396;2022-12-13T04:31:54;100451.75;;;0.61;55.83
62779;BME280;48821;48.796;2.396;2022-12-13T04:33:05;100455.19;;;0.60;55.98
62779;BME280;48821;48.796;2.396;2022-12-13T04:34:15;100457.78;;;0.60;56.46
62779;BME280;48821;48.796;2.396;2022-12-13T04:35:26;100449.16;;;0.61;56.28
62779;BME280;48821;48.796;2.396;2022-12-13T04:36:36;100461.22;;;0.62;55.75
62779;BME280;48821;48.796;2.396;2022-12-13T04:37:46;100456.94;;;0.61;56.15
62779;BME280;48821;48.796;2.396;2022-12-13T04:38:57;100450.00;;;0.60;55.96
62779;BME280;48821;48.796;2.396;2022-12-13T04:40:08;100455.19;;;0.60;55.83
62779;BME280;48821;48.796;2.396;2022-12-13T04:41:18;100452.59;;;0.60;56.30
62779;BME280;48821;48.796;2.396;2022-12-13T04:42:29;100450.00;;;0.60;55.43
62779;BME280;48821;48.796;2.396;2022-12-13T04:43:40;100448.31;;;0.59;55.63
62779;BME280;48821;48.796;2.396;2022-12-13T04:44:50;100444.84;;;0.60;55.89
62779;BME280;48821;48.796;2.396;2022-12-13T04:46:01;100444.84;;;0.60;56.08
62779;BME280;48821;48.796;2.396;2022-12-13T04:47:11;100450.00;;;0.60;56.08
62779;BME280;48821;48.796;2.396;2022-12-13T04:48:21;100448.31;;;0.59;55.57
62779;BME280;48821;48.796;2.396;2022-12-13T04:49:33;100456.91;;;0.60;55.91
62779;BME280;48821;48.796;2.396;2022-12-13T04:50:43;100455.19;;;0.59;55.85
62779;BME280;48821;48.796;2.396;2022-12-13T04:51:53;100450.00;;;0.57;55.75
62779;BME280;48821;48.796;2.396;2022-12-13T04:53:04;100451.72;;;0.55;55.53
62779;BME280;48821;48.796;2.396;2022-12-13T04:54:14;100451.72;;;0.55;55.46
62779;BME280;48821;48.796;2.396;2022-12-13T04:55:25;100450.84;;;0.54;55.93
62779;BME280;48821;48.796;2.396;2022-12-13T04:56:36;100451.72;;;0.55;56.14
62779;BME280;48821;48.796;2.396;2022-12-13T04:57:46;100451.72;;;0.55;55.78
62779;BME280;48821;48.796;2.396;2022-12-13T04:58:57;100450.84;;;0.54;56.21
62779;BME280;48821;48.796;2.396;2022-12-13T05:00:10;100451.72;;;0.55;55.50
62779;BME280;48821;48.796;2.396;2022-12-13T05:01:22;100450.00;;;0.54;56.12
62779;BME280;48821;48.796;2.396;2022-12-13T05:02:32;100445.69;;;0.53;56.23
62779;BME280;48821;48.796;2.396;2022-12-13T05:03:43;100443.09;;;0.53;55.96
62779;BME280;48821;48.796;2.396;2022-12-13T05:04:53;100441.38;;;0.52;55.90
62779;BME280;48821;48.796;2.396;2022-12-13T05:06:12;100441.38;;;0.52;56.39
62779;BME280;48821;48.796;2.396;2022-12-13T05:07:24;100444.81;;;0.51;55.51
62779;BME280;48821;48.796;2.396;2022-12-13T05:08:36;100440.47;;;0.50;55.79
62779;BME280;48821;48.796;2.396;2022-12-13T05:09:47;100444.81;;;0.49;55.95
62779;BME280;48821;48.796;2.396;2022-12-13T05:10:57;100446.53;;;0.49;56.23
62779;BME280;48821;48.796;2.396;2022-12-13T05:12:08;100442.22;;;0.49;55.82
62779;BME280;48821;48.796;2.396;2022-12-13T05:13:18;100439.66;;;0.49;55.69
62779;BME280;48821;48.796;2.396;2022-12-13T05:14:29;100442.22;;;0.51;56.04
62779;BME280;48821;48.796;2.396;2022-12-13T05:15:40;100443.94;;;0.50;55.94
62779;BME280;48821;48.796;2.396;2022-12-13T05:16:50;100444.81;;;0.51;56.03
62779;BME280;48821;48.796;2.396;2022-12-13T05:18:03;100446.56;;;0.52;56.59
62779;BME280;48821;48.796;2.396;2022-12-13T05:19:14;100446.56;;;0.52;56.32
62779;BME280;48821;48.796;2.396;2022-12-13T05:20:24;100445.69;;;0.51;56.12
62779;BME280;48821;48.796;2.396;2022-12-13T05:21:34;100445.69;;;0.51;56.31
62779;BME280;48821;48.796;2.396;2022-12-13T05:22:45;100439.63;;;0.51;56.70
62779;BME280;48821;48.796;2.396;2022-12-13T05:23:55;100437.06;;;0.51;55.73
62779;BME280;48821;48.796;2.396;2022-12-13T05:25:06;100440.50;;;0.51;55.71
62779;BME280;48821;48.796;2.396;2022-12-13T05:26:16;100438.78;;;0.52;55.76
62779;BME280;48821;48.796;2.396;2022-12-13T05:27:27;100435.34;;;0.51;56.40
62779;BME280;48821;48.796;2.396;2022-12-13T05:28:37;100443.09;;;0.53;56.63
62779;BME280;48821;48.796;2.396;2022-12-13T05:29:47;100433.59;;;0.50;56.20
62779;BME280;48821;48.796;2.396;2022-12-13T05:31:05;100437.91;;;0.53;56.37
62779;BME280;48821;48.796;2.396;2022-12-13T05:32:16;100432.75;;;0.53;55.75
62779;BME280;48821;48.796;2.396;2022-12-13T05:33:26;100436.19;;;0.53;56.08
62779;BME280;48821;48.796;2.396;2022-12-13T05:34:36;100436.22;;;0.52;55.84
62779;BME280;48821;48.796;2.396;2022-12-13T05:35:47;100429.28;;;0.51;55.67
62779;BME280;48821;48.796;2.396;2022-12-13T05:36:57;100433.59;;;0.50;56.13
62779;BME280;48821;48.796;2.396;2022-12-13T05:38:07;100434.47;;;0.49;56.00
62779;BME280;48821;48.796;2.396;2022-12-13T05:39:18;100437.06;;;0.49;55.99
62779;BME280;48821;48.796;2.396;2022-12-13T05:40:30;100439.63;;;0.51;56.10
62779;BME280;48821;48.796;2.396;2022-12-13T05:41:41;100437.91;;;0.50;55.83
62779;BME280;48821;48.796;2.396;2022-12-13T05:42:51;100443.06;;;0.50;56.23
62779;BME280;48821;48.796;2.396;2022-12-13T05:44:02;100453.44;;;0.51;56.32
62779;BME280;48821;48.796;2.396;2022-12-13T05:45:13;100448.25;;;0.50;56.55
62779;BME280;48821;48.796;2.396;2022-12-13T05:46:25;100449.13;;;0.49;56.41
62779;BME280;48821;48.796;2.396;2022-12-13T05:47:35;100456.00;;;0.50;56.46
62779;BME280;48821;48.796;2.396;2022-12-13T05:48:45;100455.16;;;0.51;56.62
62779;BME280;48821;48.796;2.396;2022-12-13T05:49:56;100455.16;;;0.49;56.73
62779;BME280;48821;48.796;2.396;2022-12-13T05:51:06;100456.88;;;0.49;56.51
62779;BME280;48821;48.796;2.396;2022-12-13T05:52:19;100459.47;;;0.49;56.77
62779;BME280;48821;48.796;2.396;2022-12-13T05:53:29;100456.00;;;0.48;55.99
62779;BME280;48821;48.796;2.396;2022-12-13T05:54:39;100461.19;;;0.48;56.75
62779;BME280;48821;48.796;2.396;2022-12-13T05:55:50;100457.75;;;0.49;56.52
62779;BME280;48821;48.796;2.396;2022-12-13T05:57:00;100456.84;;;0.47;56.63
62779;BME280;48821;48.796;2.396;2022-12-13T05:58:10;100462.91;;;0.48;56.44
62779;BME280;48821;48.796;2.396;2022-12-13T05:59:22;100455.13;;;0.46;56.59
62779;BME280;48821;48.796;2.396;2022-12-13T06:00:32;100457.69;;;0.44;56.23
62779;BME280;48821;48.796;2.396;2022-12-13T06:01:42;100452.53;;;0.43;56.18
62779;BME280;48821;48.796;2.396;2022-12-13T06:02:53;100458.56;;;0.43;56.40
62779;BME280;48821;48.796;2.396;2022-12-13T06:04:03;100462.88;;;0.43;56.76
62779;BME280;48821;48.796;2.396;2022-12-13T06:05:14;100458.56;;;0.42;56.58
62779;BME280;48821;48.796;2.396;2022-12-13T06:06:24;100456.00;;;0.42;56.30
62779;BME280;48821;48.796;2.396;2022-12-13T06:07:35;100459.41;;;0.41;56.09
62779;BME280;48821;48.796;2.396;2022-12-13T06:08:46;100462.88;;;0.41;56.68
62779;BME280;48821;48.796;2.396;2022-12-13T06:09:56;100469.75;;;0.42;57.01
62779;BME280;48821;48.796;2.396;2022-12-13T06:11:06;100469.75;;;0.41;56.87
62779;BME280;48821;48.796;2.396;2022-12-13T06:12:17;100477.53;;;0.42;56.31
62779;BME280;48821;48.796;2.396;2022-12-13T06:13:27;100474.06;;;0.40;56.57
62779;BME280;48821;48.796;2.396;2022-12-13T06:14:37;100482.69;;;0.42;56.18
62779;BME280;48821;48.796;2.396;2022-12-13T06:15:48;100480.13;;;0.41;55.82
62779;BME280;48821;48.796;2.396;2022-12-13T06:16:59;100482.69;;;0.39;56.17
62779;BME280;48821;48.796;2.396;2022-12-13T06:18:09;100475.78;;;0.40;56.25
62779;BME280;48821;48.796;2.396;2022-12-13T06:19:21;100477.53;;;0.41;56.58
62779;BME280;48821;48.796;2.396;2022-12-13T06:20:31;100470.59;;;0.40;56.32
62779;BME280;48821;48.796;2.396;2022-12-13T06:21:42;100482.69;;;0.41;56.43
62779;BME280;48821;48.796;2.396;2022-12-13T06:22:52;100484.41;;;0.40;56.12
62779;BME280;48821;48.796;2.396;2022-12-13T06:24:03;100483.53;;;0.40;56.50
62779;BME280;48821;48.796;2.396;2022-12-13T06:25:14;100485.28;;;0.39;56.42
62779;BME280;48821;48.796;2.396;2022-12-13T06:26:25;100480.13;;;0.39;56.08
62779;BME280;48821;48.796;2.396;2022-12-13T06:27:35;100483.53;;;0.37;55.63
62779;BME280;48821;48.796;2.396;2022-12-13T06:28:46;100474.06;;;0.34;55.84
62779;BME280;48821;48.796;2.396;2022-12-13T06:29:56;100480.09;;;0.36;56.02
62779;BME280;48821;48.796;2.396;2022-12-13T06:31:06;100481.81;;;0.36;56.08
62779;BME280;48821;48.796;2.396;2022-12-13T06:32:16;100483.53;;;0.37;56.41
62779;BME280;48821;48.796;2.396;2022-12-13T06:33:27;100491.31;;;0.38;56.20
62779;BME280;48821;48.796;2.396;2022-12-13T06:34:38;100493.03;;;0.39;56.02
62779;BME280;48821;48.796;2.396;2022-12-13T06:35:49;100489.59;;;0.40;56.86
62779;BME280;48821;48.796;2.396;2022-12-13T06:37:04;100498.22;;;0.42;56.46
62779;BME280;48821;48.796;2.396;2022-12-13T06:38:14;100491.31;;;0.41;56.07
62779;BME280;48821;48.796;2.396;2022-12-13T06:39:25;100493.06;;;0.44;55.70
62779;BME280;48821;48.796;2.396;2022-12-13T06:40:35;100485.28;;;0.42;56.21
62779;BME280;48821;48.796;2.396;2022-12-13T06:41:45;100481.84;;;0.42;56.37
62779;BME280;48821;48.796;2.396;2022-12-13T06:42:56;100474.94;;;0.42;55.98
62779;BME280;48821;48.796;2.396;2022-12-13T06:44:07;100472.34;;;0.42;56.10
62779;BME280;48821;48.796;2.396;2022-12-13T06:45:17;100474.09;;;0.43;56.50
62779;BME280;48821;48.796;2.396;2022-12-13T06:46:27;100471.50;;;0.45;56.18
62779;BME280;48821;48.796;2.396;2022-12-13T06:47:38;100475.81;;;0.44;55.80
62779;BME280;48821;48.796;2.396;2022-12-13T06:48:48;100471.50;;;0.43;55.92
62779;BME280;48821;48.796;2.396;2022-12-13T06:49:59;100475.78;;;0.40;55.59
62779;BME280;48821;48.796;2.396;2022-12-13T06:51:09;100471.47;;;0.37;55.65
62779;BME280;48821;48.796;2.396;2022-12-13T06:52:20;100466.28;;;0.36;56.03
62779;BME280;48821;48.796;2.396;2022-12-13T06:53:30;100469.75;;;0.35;56.17